createdAt,value
2023-02-03T00:03:01.829Z,4.90
2023-02-03T00:13:09.383Z,4.10
2023-02-03T00:23:12.557Z,3.43
2023-02-03T00:33:16.131Z,3.43
2023-02-03T00:43:18.429Z,3.63
2023-02-03T00:53:22.950Z,3.47
2023-02-03T01:03:25.343Z,3.00
2023-02-03T01:13:28.116Z,3.17
2023-02-03T01:23:30.156Z,3.10
2023-02-03T01:33:34.758Z,2.27
2023-02-03T01:43:44.196Z,3.50
2023-02-03T01:53:51.701Z,2.63
2023-02-03T02:04:00.368Z,2.80
2023-02-03T02:14:04.893Z,2.70
2023-02-03T02:24:44.460Z,2.90
2023-02-03T02:34:51.612Z,2.20
2023-02-03T02:45:03.176Z,1.90
2023-02-03T02:55:14.351Z,2.30
2023-02-03T03:05:22.010Z,2.43
2023-02-03T03:15:28.606Z,2.30
2023-02-03T03:25:47.546Z,2.20
2023-02-03T03:35:57.948Z,2.53
2023-02-03T03:46:20.338Z,2.73
2023-02-03T03:56:32.819Z,3.63
2023-02-03T04:06:42.893Z,3.90
2023-02-03T04:16:45.009Z,3.73
2023-02-03T04:26:47.215Z,3.47
2023-02-03T04:36:50.691Z,3.93
2023-02-03T04:46:55.181Z,3.93
2023-02-03T04:56:59.663Z,4.00
2023-02-03T05:07:01.739Z,4.63
2023-02-03T05:17:03.826Z,3.83
2023-02-03T05:27:05.938Z,4.57
2023-02-03T05:37:10.694Z,4.20
2023-02-03T05:47:12.810Z,5.13
2023-02-03T05:57:22.980Z,5.00
2023-02-03T06:07:27.329Z,4.17
2023-02-03T06:17:34.254Z,5.03
2023-02-03T06:27:36.351Z,4.67
2023-02-03T06:37:41.419Z,5.67
2023-02-03T06:47:44.545Z,5.93
2023-02-03T06:57:48.273Z,8.20
2023-02-03T07:07:53.925Z,5.50
2023-02-03T07:17:55.979Z,5.20
2023-02-03T07:27:58.183Z,5.13
2023-02-03T07:38:00.291Z,4.10
2023-02-03T07:48:05.186Z,4.23
2023-02-03T07:58:09.710Z,4.17
2023-02-03T08:08:11.831Z,3.87
2023-02-03T08:18:16.383Z,3.63
2023-02-03T08:28:25.889Z,3.67
2023-02-03T08:38:32.959Z,4.27
2023-02-03T08:48:37.960Z,3.80
2023-02-03T08:58:40.407Z,4.10
2023-02-03T09:08:46.760Z,3.60
2023-02-03T09:18:51.587Z,2.80
2023-02-03T09:28:58.676Z,3.53
2023-02-03T09:39:05.527Z,2.63
2023-02-03T09:49:27.668Z,1.90
2023-02-03T09:59:32.495Z,3.00
2023-02-03T10:10:13.931Z,2.63
2023-02-03T10:20:29.262Z,2.13
2023-02-03T10:30:45.976Z,3.00
2023-02-03T10:40:48.264Z,2.27
2023-02-03T10:50:54.137Z,1.50
2023-02-03T11:01:04.929Z,2.40
2023-02-03T11:11:12.082Z,1.80
2023-02-03T11:21:27.735Z,2.10
2023-02-03T11:31:33.064Z,2.50
2023-02-03T11:41:40.658Z,2.43
2023-02-03T11:52:24.372Z,2.20
2023-02-03T12:02:40.641Z,2.37
2023-02-03T12:13:01.428Z,2.63
2023-02-03T12:23:35.748Z,2.77
2023-02-03T12:33:47.179Z,2.50
2023-02-03T12:43:52.792Z,1.93
2023-02-03T12:54:02.379Z,2.67
2023-02-03T13:04:26.037Z,3.27
2023-02-03T13:14:47.917Z,3.00
2023-02-03T13:25:25.883Z,3.03
2023-02-03T13:35:46.308Z,3.13
2023-02-03T13:45:50.743Z,3.67
2023-02-03T13:55:56.310Z,3.67
2023-02-03T14:06:01.888Z,4.93
2023-02-03T14:16:26.696Z,4.97
2023-02-03T14:26:41.467Z,6.53
2023-02-03T14:36:53.170Z,7.00
2023-02-03T14:47:19.945Z,8.00
2023-02-03T14:57:52.860Z,10.33
2023-02-03T15:07:54.963Z,11.60
2023-02-03T15:18:02.447Z,11.13
2023-02-03T15:28:21.885Z,9.37
2023-02-03T15:38:29.890Z,9.93
2023-02-03T15:49:09.960Z,12.43
2023-02-03T15:59:24.874Z,10.70
2023-02-03T16:09:40.303Z,12.17
2023-02-03T16:19:43.845Z,11.50
2023-02-03T16:30:04.627Z,10.80
2023-02-03T16:40:25.539Z,9.13
2023-02-03T16:50:51.412Z,12.87
2023-02-03T17:00:56.833Z,18.37
2023-02-03T17:11:10.344Z,12.53
2023-02-03T17:21:25.548Z,12.53
2023-02-03T17:31:30.646Z,15.50
2023-02-03T18:02:05.065Z,13.20
2023-02-03T18:12:09.301Z,13.47
2023-02-03T18:22:14.671Z,10.10
2023-02-03T18:32:21.533Z,13.63
2023-02-03T18:42:25.763Z,18.10
2023-02-03T18:52:31.739Z,21.63
2023-02-03T19:02:37.637Z,19.93
2023-02-03T19:12:44.355Z,22.10
2023-02-03T19:22:46.442Z,14.30
2023-02-03T19:32:48.518Z,14.67
2023-02-03T19:42:50.679Z,13.33
2023-02-03T19:52:52.785Z,13.57
2023-02-03T20:02:55.327Z,11.60
2023-02-03T20:12:59.960Z,13.67
2023-02-03T20:23:08.564Z,10.23
2023-02-03T20:33:21.325Z,11.40
2023-02-03T20:54:22.141Z,11.63
2023-02-03T21:04:43.061Z,7.93
2023-02-03T21:14:53.918Z,10.43
2023-02-03T21:25:03.504Z,15.33
2023-02-03T21:35:29.681Z,7.07
2023-02-03T22:07:02.738Z,8.10
2023-02-03T22:17:04.963Z,12.37
2023-02-03T22:27:07.774Z,12.17
2023-02-03T22:37:09.916Z,7.23
2023-02-03T22:47:11.938Z,9.77
2023-02-03T22:57:14.102Z,6.17
2023-02-03T23:07:18.890Z,7.43
2023-02-03T23:17:25.654Z,6.17
2023-02-03T23:27:27.950Z,9.87
2023-02-03T23:37:32.670Z,7.53
2023-02-03T23:47:43.515Z,5.23
2023-02-03T23:57:46.098Z,9.33
